METAR Data
IDs: Format: Raw Decoded Include TAF

Data at: 1304 UTC 11 Dec 2018

KMNZ 111255Z AUTO 19007KT 10SM CLR 03/01 A3034 RMK AO2 T00310005
KMNZ 111235Z AUTO 20009KT 10SM CLR 03/00 A3034 RMK AO2 T00280004
KMNZ 111215Z AUTO 21008KT 10SM CLR 03/00 A3034 RMK AO2 T00340004
KMNZ 111155Z AUTO 21008KT 10SM CLR 04/01 A3033 RMK AO2 T00400006 10046 20011
KMNZ 111135Z AUTO 20008KT 10SM CLR 03/00 A3033 RMK AO2 T00340002
KMNZ 111115Z AUTO 21008KT 10SM CLR 04/00 A3033 RMK AO2 T00380001
KMNZ 111055Z AUTO 21008KT 10SM CLR 04/00 A3033 RMK AO2 T00440001
KMNZ 111035Z AUTO 20009KT 10SM CLR 04/00 A3033 RMK AO2 T00410001
KMNZ 111015Z AUTO 21009KT 10SM CLR 03/00 A3034 RMK AO2 T00290000
KMNZ 110955Z AUTO 20006KT 10SM CLR 02/M01 A3034 RMK AO2 T00201010
KMNZ 110935Z AUTO 19006KT 10SM CLR 02/M01 A3034 RMK AO2 T00211010
KMNZ 110915Z AUTO 18006KT 10SM CLR 03/M01 A3034 RMK AO2 T00291007
KMNZ 110855Z AUTO 17007KT 10SM CLR 03/M01 A3034 RMK AO2 T00301009
KMNZ 110835Z AUTO 18007KT 10SM CLR 03/M01 A3034 RMK AO2 T00321010
KMNZ 110815Z AUTO 19008KT 10SM CLR 03/M01 A3034 RMK AO2 T00301011
KMNZ 110755Z AUTO 20008KT 10SM CLR 04/M01 A3034 RMK AO2 T00431006
KMNZ 110735Z AUTO 20008KT 10SM CLR 03/M01 A3035 RMK AO2 T00281014
KMNZ 110715Z AUTO 22008KT 10SM CLR 03/M01 A3036 RMK AO2 T00291011
KMNZ 110655Z AUTO 22007KT 10SM CLR 01/M01 A3036 RMK AO2 T00141012
KMNZ 110635Z AUTO 20006KT 10SM CLR 03/M01 A3037 RMK AO2 T00291010
KMNZ 110615Z AUTO 19006KT 10SM CLR 03/M01 A3037 RMK AO2 T00251010
KMNZ 110555Z AUTO 20005KT 10SM CLR 04/M01 A3036 RMK AO2 T00401009 10115 20032 401451003
KMNZ 110535Z AUTO 21004KT 10SM CLR 05/M01 A3036 RMK AO2 T00511009
KMNZ 110515Z AUTO 18005KT 10SM CLR 05/M01 A3037 RMK AO2 T00471007
KMNZ 110455Z AUTO 21004KT 10SM CLR 04/00 A3037 RMK AO2 T00371005
KMNZ 110435Z AUTO 22005KT 10SM CLR 04/M01 A3037 RMK AO2 T00351006
KMNZ 110415Z AUTO 22006KT 10SM CLR 04/M01 A3037 RMK AO2 T00361006
KMNZ 110355Z AUTO 22006KT 10SM CLR 04/M01 A3037 RMK AO2 T00401006
KMNZ 110335Z AUTO 22006KT 10SM CLR 04/M01 A3037 RMK AO2 T00361006
KMNZ 110315Z AUTO 21005KT 10SM CLR 05/M01 A3037 RMK AO2 T00531015
KMNZ 110255Z AUTO 20004KT 10SM CLR 06/M01 A3037 RMK AO2 T00641014
KMNZ 110235Z AUTO 19004KT 10SM CLR 07/M01 A3037 RMK AO2 T00661011
KMNZ 110215Z AUTO 18004KT 10SM CLR 07/M01 A3037 RMK AO2 T00651009
KMNZ 110155Z AUTO 19003KT 10SM CLR 08/M01 A3037 RMK AO2 T00751013
KMNZ 110135Z AUTO 20003KT 10SM CLR 08/M02 A3037 RMK AO2 T00761016
KMNZ 110115Z AUTO 22004KT 10SM CLR 08/M01 A3037 RMK AO2 T00791013
KMNZ 110055Z AUTO 18004KT 10SM CLR 09/M02 A3037 RMK AO2 T00851020
KMNZ 110035Z AUTO 18005KT 10SM CLR 10/M02 A3037 RMK AO2 T00961025
KMNZ 110015Z AUTO 17004KT 10SM CLR 10/M02 A3036 RMK AO2 T00951022
KMNZ 102355Z AUTO 20003KT 10SM CLR 12/M04 A3035 RMK AO2 T01151042 10145 20110
KMNZ 102335Z AUTO 20003KT 10SM CLR 11/M02 A3034 RMK AO2 T01131018
KMNZ 102315Z AUTO 00000KT 10SM CLR 13/M01 A3034 RMK AO2 T01251007
KMNZ 102255Z AUTO 00000KT 10SM CLR 14/M02 A3034 RMK AO2 T01351025
KMNZ 102235Z AUTO 27003KT 10SM CLR 14/M04 A3034 RMK AO2 T01401040
KMNZ 102215Z AUTO 26004KT 10SM CLR 14/M04 A3034 RMK AO2 T01421037
KMNZ 102155Z AUTO 29003KT 10SM CLR 14/M04 A3034 RMK AO2 T01431041
KMNZ 102135Z AUTO 27004KT 10SM CLR 14/M05 A3034 RMK AO2 T01421049
KMNZ 102115Z AUTO 28004KT 10SM CLR 14/M04 A3034 RMK AO2 T01421045
KMNZ 102055Z AUTO 29004KT 10SM CLR 14/M04 A3034 RMK AO2 T01431044
KMNZ 102035Z AUTO 27007KT 10SM CLR 15/M04 A3034 RMK AO2 T01451042
KMNZ 102015Z AUTO 27006KT 10SM CLR 14/M04 A3034 RMK AO2 T01441043
KMNZ 101955Z AUTO 27006KT 10SM CLR 15/M03 A3034 RMK AO2 T01451033
KMNZ 101935Z AUTO 28004KT 10SM CLR 14/M04 A3035 RMK AO2 T01411043
KMNZ 101915Z AUTO 29006KT 10SM CLR 14/M04 A3036 RMK AO2 T01411037
KMNZ 101855Z AUTO 25003KT 10SM CLR 13/M04 A3037 RMK AO2 T01341042
KMNZ 101835Z AUTO 00000KT 10SM CLR 13/M05 A3038 RMK AO2 T01281050
KMNZ 101815Z AUTO 26003KT 10SM CLR 13/M05 A3038 RMK AO2 T01271047
KMNZ 101755Z AUTO 30004KT 10SM CLR 12/M04 A3039 RMK AO2 T01201037 10121 21003
KMNZ 101735Z AUTO 28004KT 10SM CLR 12/M04 A3040 RMK AO2 T01151039
KMNZ 101715Z AUTO 28005KT 10SM CLR 11/M02 A3041 RMK AO2 T01101018
KMNZ 101655Z AUTO 30005KT 10SM CLR 10/M03 A3042 RMK AO2 T01001032
KMNZ 101635Z AUTO 31006KT 10SM CLR 09/M03 A3042 RMK AO2 T00921029
KMNZ 101615Z AUTO 32005KT 10SM CLR 09/M02 A3042 RMK AO2 T00871021
KMNZ 101555Z AUTO 30006KT 10SM CLR 07/M02 A3042 RMK AO2 T00741024
KMNZ 101535Z AUTO 28006KT 10SM CLR 07/M02 A3041 RMK AO2 T00651016
KMNZ 101515Z AUTO 29007KT 10SM CLR 05/M02 A3041 RMK AO2 T00531017
KMNZ 101455Z AUTO 28007KT 10SM CLR 04/M02 A3040 RMK AO2 T00401018
KMNZ 101435Z AUTO 29006KT 10SM CLR 03/M02 A3040 RMK AO2 T00301024
KMNZ 101415Z AUTO 27005KT 10SM CLR 02/M03 A3039 RMK AO2 T00171026
KMNZ 101355Z AUTO 28006KT 10SM CLR 02/M03 A3039 RMK AO2 T00151032
KMNZ 101335Z AUTO 28004KT 10SM CLR 00/M04 A3039 RMK AO2 T10011037
KMNZ 101315Z AUTO 29007KT 10SM CLR 01/M03 A3039 RMK AO2 T00051035
KMNZ 101255Z AUTO 31008KT 10SM CLR 01/M03 A3038 RMK AO2 T00061033
KMNZ 101235Z AUTO 30008KT 10SM CLR 01/M03 A3037 RMK AO2 T00051033
KMNZ 101215Z AUTO 30009KT 10SM CLR 01/M03 A3037 RMK AO2 T00081033
KMNZ 101155Z AUTO 31008KT 10SM CLR 01/M03 A3035 RMK AO2 T00051033 10008 20000
KMNZ 101135Z AUTO 31008KT 10SM CLR 01/M03 A3035 RMK AO2 T00071035
KMNZ 101115Z AUTO 31007KT 10SM CLR 00/M03 A3035 RMK AO2 T00021035
KMNZ 101055Z AUTO 31007KT 10SM CLR 00/M03 A3035 RMK AO2 T00041031
KMNZ 101035Z AUTO 31007KT 10SM CLR 00/M03 A3035 RMK AO2 T00001032
KMNZ 101015Z AUTO 31007KT 10SM CLR 00/M03 A3036 RMK AO2 T00011030
KMNZ 100955Z AUTO 31008KT 10SM CLR 01/M03 A3037 RMK AO2 T00051028
KMNZ 100935Z AUTO 31008KT 10SM CLR 00/M02 A3037 RMK AO2 T00011025
KMNZ 100915Z AUTO 31007KT 10SM CLR 00/M02 A3037 RMK AO2 T00001023
KMNZ 100855Z AUTO 30009KT 10SM CLR 01/M02 A3036 RMK AO2 T00051021
KMNZ 100835Z AUTO 30007KT 10SM CLR 00/M02 A3037 RMK AO2 T00011020
KMNZ 100815Z AUTO 31007KT 10SM CLR 00/M02 A3037 RMK AO2 T00011020
KMNZ 100755Z AUTO 31007KT 10SM CLR 00/M02 A3038 RMK AO2 T00021018
KMNZ 100735Z AUTO 30007KT 10SM CLR 00/M02 A3038 RMK AO2 T00001018
KMNZ 100715Z AUTO 29007KT 10SM CLR 01/M01 A3038 RMK AO2 T00051015
KMNZ 100655Z AUTO 29006KT 10SM CLR 00/M01 A3038 RMK AO2 T00031013
KMNZ 100635Z AUTO 30007KT 10SM CLR 00/M01 A3038 RMK AO2 T00041014
KMNZ 100615Z AUTO 30007KT 10SM CLR 00/M01 A3038 RMK AO2 T00041015
KMNZ 100555Z AUTO 31007KT 10SM CLR 01/M01 A3039 RMK AO2 T00081012 10062 20007 400820007
KMNZ 100535Z AUTO 31006KT 10SM CLR 01/M01 A3039 RMK AO2 T00081013
KMNZ 100515Z AUTO 31007KT 10SM CLR 01/M01 A3040 RMK AO2 T00101010
KMNZ 100455Z AUTO 31006KT 10SM CLR 02/M01 A3039 RMK AO2 T00161006
KMNZ 100435Z AUTO 32007KT 10SM CLR 02/00 A3040 RMK AO2 T00181005
KMNZ 100415Z AUTO 33007KT 10SM CLR 02/00 A3040 RMK AO2 T00201002
KMNZ 100355Z AUTO 32006KT 10SM CLR 02/00 A3039 RMK AO2 T00220000
KMNZ 100335Z AUTO 32006KT 10SM CLR 03/00 A3039 RMK AO2 T00270000
KMNZ 100315Z AUTO 32007KT 10SM CLR 03/00 A3038 RMK AO2 T00280000
KMNZ 100255Z AUTO 33007KT 10SM CLR 03/00 A3038 RMK AO2 T00310002
KMNZ 100235Z AUTO 32006KT 10SM CLR 03/00 A3038 RMK AO2 T00320002
KMNZ 100215Z AUTO 31006KT 10SM CLR 04/01 A3037 RMK AO2 T00350005
KMNZ 100155Z AUTO 32006KT 10SM CLR 04/01 A3037 RMK AO2 T00370007
KMNZ 100135Z AUTO 31006KT 10SM CLR 04/01 A3036 RMK AO2 T00420012
KMNZ 100115Z AUTO 32006KT 10SM CLR 04/01 A3035 RMK AO2 T00380013